sensor_id;sensor_type;location;lat;lon;timestamp;P1;durP1;ratioP1;P2;durP2;ratioP2
38725;SDS011;24474;48.906;8.808;2024-02-21T00:00:56;8.07;;;2.50;;
38725;SDS011;24474;48.906;8.808;2024-02-21T00:03:22;7.10;;;2.30;;
38725;SDS011;24474;48.906;8.808;2024-02-21T00:05:47;7.55;;;2.72;;
38725;SDS011;24474;48.906;8.808;2024-02-21T00:08:14;10.60;;;2.70;;
38725;SDS011;24474;48.906;8.808;2024-02-21T00:10:39;7.30;;;2.83;;
38725;SDS011;24474;48.906;8.808;2024-02-21T00:13:05;11.20;;;3.00;;
38725;SDS011;24474;48.906;8.808;2024-02-21T00:15:30;7.28;;;2.45;;
38725;SDS011;24474;48.906;8.808;2024-02-21T00:17:56;7.47;;;2.47;;
38725;SDS011;24474;48.906;8.808;2024-02-21T00:20:21;7.15;;;2.42;;
38725;SDS011;24474;48.906;8.808;2024-02-21T00:22:47;8.10;;;2.50;;
38725;SDS011;24474;48.906;8.808;2024-02-21T00:25:13;5.05;;;2.60;;
38725;SDS011;24474;48.906;8.808;2024-02-21T00:27:39;7.80;;;2.92;;
38725;SDS011;24474;48.906;8.808;2024-02-21T00:30:04;7.40;;;2.40;;
38725;SDS011;24474;48.906;8.808;2024-02-21T00:32:31;6.80;;;2.38;;
38725;SDS011;24474;48.906;8.808;2024-02-21T00:34:59;7.22;;;2.45;;
38725;SDS011;24474;48.906;8.808;2024-02-21T00:37:24;7.68;;;2.63;;
38725;SDS011;24474;48.906;8.808;2024-02-21T00:39:50;8.55;;;2.65;;
38725;SDS011;24474;48.906;8.808;2024-02-21T00:42:15;6.43;;;2.33;;
38725;SDS011;24474;48.906;8.808;2024-02-21T00:44:41;7.82;;;2.50;;
38725;SDS011;24474;48.906;8.808;2024-02-21T00:47:07;7.53;;;2.33;;
38725;SDS011;24474;48.906;8.808;2024-02-21T00:49:32;7.95;;;2.65;;
38725;SDS011;24474;48.906;8.808;2024-02-21T00:51:58;9.57;;;2.55;;
38725;SDS011;24474;48.906;8.808;2024-02-21T00:54:24;10.70;;;2.38;;
38725;SDS011;24474;48.906;8.808;2024-02-21T00:56:49;8.77;;;2.40;;
38725;SDS011;24474;48.906;8.808;2024-02-21T00:59:15;7.75;;;2.42;;
38725;SDS011;24474;48.906;8.808;2024-02-21T01:01:40;11.13;;;2.55;;
38725;SDS011;24474;48.906;8.808;2024-02-21T01:04:09;8.05;;;2.55;;
38725;SDS011;24474;48.906;8.808;2024-02-21T01:06:34;10.32;;;2.67;;
38725;SDS011;24474;48.906;8.808;2024-02-21T01:09:00;7.18;;;2.20;;
38725;SDS011;24474;48.906;8.808;2024-02-21T01:11:26;11.10;;;4.07;;
38725;SDS011;24474;48.906;8.808;2024-02-21T01:13:52;14.30;;;4.22;;
38725;SDS011;24474;48.906;8.808;2024-02-21T01:16:18;10.30;;;2.65;;
38725;SDS011;24474;48.906;8.808;2024-02-21T01:18:43;9.73;;;2.70;;
38725;SDS011;24474;48.906;8.808;2024-02-21T01:21:09;6.88;;;2.15;;
38725;SDS011;24474;48.906;8.808;2024-02-21T01:23:35;8.77;;;2.22;;
38725;SDS011;24474;48.906;8.808;2024-02-21T01:26:02;5.57;;;2.20;;
38725;SDS011;24474;48.906;8.808;2024-02-21T01:28:28;9.10;;;2.42;;
38725;SDS011;24474;48.906;8.808;2024-02-21T01:30:53;9.70;;;2.65;;
38725;SDS011;24474;48.906;8.808;2024-02-21T01:33:19;9.35;;;2.97;;
38725;SDS011;24474;48.906;8.808;2024-02-21T01:35:45;8.80;;;2.75;;
38725;SDS011;24474;48.906;8.808;2024-02-21T01:38:12;8.20;;;2.72;;
38725;SDS011;24474;48.906;8.808;2024-02-21T01:40:38;9.30;;;2.50;;
38725;SDS011;24474;48.906;8.808;2024-02-21T01:43:04;7.43;;;2.60;;
38725;SDS011;24474;48.906;8.808;2024-02-21T01:45:41;7.15;;;2.42;;
38725;SDS011;24474;48.906;8.808;2024-02-21T01:48:07;9.48;;;2.35;;
38725;SDS011;24474;48.906;8.808;2024-02-21T01:50:33;7.25;;;2.60;;
38725;SDS011;24474;48.906;8.808;2024-02-21T01:52:59;6.88;;;2.40;;
38725;SDS011;24474;48.906;8.808;2024-02-21T01:55:25;10.32;;;2.90;;
38725;SDS011;24474;48.906;8.808;2024-02-21T01:57:50;11.50;;;3.00;;
38725;SDS011;24474;48.906;8.808;2024-02-21T02:00:16;9.80;;;2.83;;
38725;SDS011;24474;48.906;8.808;2024-02-21T02:02:42;8.55;;;3.03;;
38725;SDS011;24474;48.906;8.808;2024-02-21T02:05:09;11.02;;;2.75;;
38725;SDS011;24474;48.906;8.808;2024-02-21T02:07:36;8.20;;;3.05;;
38725;SDS011;24474;48.906;8.808;2024-02-21T02:10:01;9.77;;;2.72;;
38725;SDS011;24474;48.906;8.808;2024-02-21T02:12:27;9.52;;;2.72;;
38725;SDS011;24474;48.906;8.808;2024-02-21T02:15:00;9.10;;;2.70;;
38725;SDS011;24474;48.906;8.808;2024-02-21T02:17:29;8.05;;;2.97;;
38725;SDS011;24474;48.906;8.808;2024-02-21T02:19:55;11.48;;;2.55;;
38725;SDS011;24474;48.906;8.808;2024-02-21T02:22:22;11.82;;;2.90;;
38725;SDS011;24474;48.906;8.808;2024-02-21T02:24:52;8.85;;;3.08;;
38725;SDS011;24474;48.906;8.808;2024-02-21T02:27:18;6.15;;;2.60;;
38725;SDS011;24474;48.906;8.808;2024-02-21T02:29:44;9.35;;;2.67;;
38725;SDS011;24474;48.906;8.808;2024-02-21T02:32:09;8.90;;;2.70;;
38725;SDS011;24474;48.906;8.808;2024-02-21T02:34:35;11.77;;;2.92;;
38725;SDS011;24474;48.906;8.808;2024-02-21T02:37:01;8.27;;;2.97;;
38725;SDS011;24474;48.906;8.808;2024-02-21T02:39:26;8.70;;;2.58;;
38725;SDS011;24474;48.906;8.808;2024-02-21T02:41:52;12.18;;;3.10;;
38725;SDS011;24474;48.906;8.808;2024-02-21T02:44:18;8.18;;;2.35;;
38725;SDS011;24474;48.906;8.808;2024-02-21T02:46:43;8.07;;;2.53;;
38725;SDS011;24474;48.906;8.808;2024-02-21T02:49:09;6.65;;;2.63;;
38725;SDS011;24474;48.906;8.808;2024-02-21T02:51:35;9.18;;;2.60;;
38725;SDS011;24474;48.906;8.808;2024-02-21T02:54:00;6.97;;;2.47;;
38725;SDS011;24474;48.906;8.808;2024-02-21T02:56:27;6.93;;;2.40;;
38725;SDS011;24474;48.906;8.808;2024-02-21T02:58:52;9.25;;;2.65;;
38725;SDS011;24474;48.906;8.808;2024-02-21T03:01:18;6.88;;;2.30;;
38725;SDS011;24474;48.906;8.808;2024-02-21T03:03:43;8.10;;;2.47;;
38725;SDS011;24474;48.906;8.808;2024-02-21T03:06:11;8.75;;;2.55;;
38725;SDS011;24474;48.906;8.808;2024-02-21T03:08:37;8.40;;;2.58;;
38725;SDS011;24474;48.906;8.808;2024-02-21T03:11:03;7.15;;;2.78;;
38725;SDS011;24474;48.906;8.808;2024-02-21T03:13:28;5.85;;;2.40;;
38725;SDS011;24474;48.906;8.808;2024-02-21T03:15:54;9.90;;;2.92;;
38725;SDS011;24474;48.906;8.808;2024-02-21T03:18:19;7.13;;;2.53;;
38725;SDS011;24474;48.906;8.808;2024-02-21T03:20:45;9.75;;;2.47;;
38725;SDS011;24474;48.906;8.808;2024-02-21T03:23:11;8.15;;;2.47;;
38725;SDS011;24474;48.906;8.808;2024-02-21T03:25:39;5.70;;;2.13;;
38725;SDS011;24474;48.906;8.808;2024-02-21T03:28:05;8.80;;;2.50;;
38725;SDS011;24474;48.906;8.808;2024-02-21T03:30:30;6.57;;;2.30;;
38725;SDS011;24474;48.906;8.808;2024-02-21T03:32:56;7.93;;;2.50;;
38725;SDS011;24474;48.906;8.808;2024-02-21T03:35:22;7.93;;;2.30;;
38725;SDS011;24474;48.906;8.808;2024-02-21T03:37:51;6.95;;;2.58;;
38725;SDS011;24474;48.906;8.808;2024-02-21T03:40:17;4.50;;;2.20;;
38725;SDS011;24474;48.906;8.808;2024-02-21T03:42:42;5.63;;;2.05;;
38725;SDS011;24474;48.906;8.808;2024-02-21T03:45:08;6.38;;;3.00;;
38725;SDS011;24474;48.906;8.808;2024-02-21T03:47:34;9.73;;;3.08;;
38725;SDS011;24474;48.906;8.808;2024-02-21T03:50:00;9.82;;;3.25;;
38725;SDS011;24474;48.906;8.808;2024-02-21T03:52:25;6.72;;;3.03;;
38725;SDS011;24474;48.906;8.808;2024-02-21T03:54:51;7.38;;;2.72;;
38725;SDS011;24474;48.906;8.808;2024-02-21T03:57:17;6.85;;;2.22;;
38725;SDS011;24474;48.906;8.808;2024-02-21T03:59:42;10.00;;;2.85;;
38725;SDS011;24474;48.906;8.808;2024-02-21T04:02:08;8.10;;;2.47;;
38725;SDS011;24474;48.906;8.808;2024-02-21T04:04:36;10.85;;;2.75;;
38725;SDS011;24474;48.906;8.808;2024-02-21T04:07:02;8.00;;;2.45;;
38725;SDS011;24474;48.906;8.808;2024-02-21T04:09:32;9.88;;;2.65;;
38725;SDS011;24474;48.906;8.808;2024-02-21T04:11:59;9.98;;;2.38;;
38725;SDS011;24474;48.906;8.808;2024-02-21T04:14:25;8.40;;;2.38;;
38725;SDS011;24474;48.906;8.808;2024-02-21T04:16:50;7.53;;;2.15;;
38725;SDS011;24474;48.906;8.808;2024-02-21T04:19:19;9.35;;;2.35;;
38725;SDS011;24474;48.906;8.808;2024-02-21T04:21:44;6.57;;;2.20;;
38725;SDS011;24474;48.906;8.808;2024-02-21T04:24:10;6.57;;;2.45;;
38725;SDS011;24474;48.906;8.808;2024-02-21T04:26:36;9.85;;;2.45;;
38725;SDS011;24474;48.906;8.808;2024-02-21T04:29:01;8.23;;;2.67;;
38725;SDS011;24474;48.906;8.808;2024-02-21T04:31:27;7.20;;;2.60;;
38725;SDS011;24474;48.906;8.808;2024-02-21T04:33:53;9.73;;;2.30;;
38725;SDS011;24474;48.906;8.808;2024-02-21T04:36:18;7.70;;;2.60;;
38725;SDS011;24474;48.906;8.808;2024-02-21T04:38:44;9.27;;;2.67;;
38725;SDS011;24474;48.906;8.808;2024-02-21T04:41:10;7.20;;;2.58;;
38725;SDS011;24474;48.906;8.808;2024-02-21T04:43:36;10.18;;;2.50;;
38725;SDS011;24474;48.906;8.808;2024-02-21T04:46:01;9.63;;;2.85;;
38725;SDS011;24474;48.906;8.808;2024-02-21T04:48:27;11.98;;;2.50;;
38725;SDS011;24474;48.906;8.808;2024-02-21T04:50:53;6.18;;;2.13;;
38725;SDS011;24474;48.906;8.808;2024-02-21T04:53:19;9.63;;;2.55;;
38725;SDS011;24474;48.906;8.808;2024-02-21T04:55:45;6.45;;;2.50;;
38725;SDS011;24474;48.906;8.808;2024-02-21T04:58:10;9.20;;;2.83;;
38725;SDS011;24474;48.906;8.808;2024-02-21T05:00:36;4.22;;;2.20;;
38725;SDS011;24474;48.906;8.808;2024-02-21T05:03:02;9.85;;;2.53;;
38725;SDS011;24474;48.906;8.808;2024-02-21T05:05:27;7.72;;;2.08;;
38725;SDS011;24474;48.906;8.808;2024-02-21T05:07:53;7.63;;;2.22;;
38725;SDS011;24474;48.906;8.808;2024-02-21T05:10:19;8.65;;;2.40;;
38725;SDS011;24474;48.906;8.808;2024-02-21T05:12:45;9.52;;;2.63;;
38725;SDS011;24474;48.906;8.808;2024-02-21T05:15:11;10.45;;;2.63;;
38725;SDS011;24474;48.906;8.808;2024-02-21T05:17:36;8.13;;;2.72;;
38725;SDS011;24474;48.906;8.808;2024-02-21T05:20:02;5.20;;;2.05;;
38725;SDS011;24474;48.906;8.808;2024-02-21T05:22:28;8.20;;;2.70;;
38725;SDS011;24474;48.906;8.808;2024-02-21T05:24:54;7.57;;;2.70;;
38725;SDS011;24474;48.906;8.808;2024-02-21T05:27:19;6.38;;;2.45;;
38725;SDS011;24474;48.906;8.808;2024-02-21T05:29:45;8.63;;;2.33;;
38725;SDS011;24474;48.906;8.808;2024-02-21T05:32:11;9.48;;;2.55;;
38725;SDS011;24474;48.906;8.808;2024-02-21T05:34:37;7.05;;;2.58;;
38725;SDS011;24474;48.906;8.808;2024-02-21T05:37:03;7.00;;;2.72;;
38725;SDS011;24474;48.906;8.808;2024-02-21T05:39:28;6.95;;;2.17;;
38725;SDS011;24474;48.906;8.808;2024-02-21T05:41:54;6.57;;;2.40;;
38725;SDS011;24474;48.906;8.808;2024-02-21T05:44:20;6.95;;;2.65;;
38725;SDS011;24474;48.906;8.808;2024-02-21T05:46:47;7.10;;;2.53;;
38725;SDS011;24474;48.906;8.808;2024-02-21T05:49:12;9.27;;;2.50;;
38725;SDS011;24474;48.906;8.808;2024-02-21T05:51:38;7.43;;;2.70;;
38725;SDS011;24474;48.906;8.808;2024-02-21T05:54:04;7.20;;;2.40;;
38725;SDS011;24474;48.906;8.808;2024-02-21T05:56:29;8.77;;;2.42;;
38725;SDS011;24474;48.906;8.808;2024-02-21T05:58:55;8.25;;;2.75;;
38725;SDS011;24474;48.906;8.808;2024-02-21T06:01:21;7.97;;;2.88;;
38725;SDS011;24474;48.906;8.808;2024-02-21T06:03:47;9.68;;;2.97;;
38725;SDS011;24474;48.906;8.808;2024-02-21T06:06:12;7.10;;;2.70;;
38725;SDS011;24474;48.906;8.808;2024-02-21T06:08:41;8.93;;;2.45;;
38725;SDS011;24474;48.906;8.808;2024-02-21T06:11:07;6.38;;;2.30;;
38725;SDS011;24474;48.906;8.808;2024-02-21T06:13:32;6.13;;;2.60;;
38725;SDS011;24474;48.906;8.808;2024-02-21T06:15:58;8.02;;;2.50;;
38725;SDS011;24474;48.906;8.808;2024-02-21T06:18:26;6.57;;;2.97;;
38725;SDS011;24474;48.906;8.808;2024-02-21T06:20:52;9.70;;;2.72;;
38725;SDS011;24474;48.906;8.808;2024-02-21T06:23:17;8.82;;;2.60;;
38725;SDS011;24474;48.906;8.808;2024-02-21T06:25:43;10.13;;;3.03;;
38725;SDS011;24474;48.906;8.808;2024-02-21T06:28:09;6.28;;;2.50;;
38725;SDS011;24474;48.906;8.808;2024-02-21T06:30:35;7.63;;;2.50;;
38725;SDS011;24474;48.906;8.808;2024-02-21T06:33:01;9.45;;;3.30;;
38725;SDS011;24474;48.906;8.808;2024-02-21T06:35:27;10.57;;;2.95;;
38725;SDS011;24474;48.906;8.808;2024-02-21T06:37:53;6.22;;;2.63;;
38725;SDS011;24474;48.906;8.808;2024-02-21T06:40:20;6.97;;;2.50;;
38725;SDS011;24474;48.906;8.808;2024-02-21T06:42:46;6.68;;;2.67;;
38725;SDS011;24474;48.906;8.808;2024-02-21T06:45:14;7.55;;;2.58;;
38725;SDS011;24474;48.906;8.808;2024-02-21T06:47:40;7.97;;;2.67;;
38725;SDS011;24474;48.906;8.808;2024-02-21T06:50:06;9.52;;;2.80;;
38725;SDS011;24474;48.906;8.808;2024-02-21T06:52:32;7.78;;;2.92;;
38725;SDS011;24474;48.906;8.808;2024-02-21T06:54:59;6.15;;;2.35;;
38725;SDS011;24474;48.906;8.808;2024-02-21T06:57:26;6.25;;;2.15;;
38725;SDS011;24474;48.906;8.808;2024-02-21T06:59:51;5.90;;;2.30;;
38725;SDS011;24474;48.906;8.808;2024-02-21T07:02:17;5.65;;;2.50;;
38725;SDS011;24474;48.906;8.808;2024-02-21T07:04:44;7.20;;;2.80;;
38725;SDS011;24474;48.906;8.808;2024-02-21T07:07:12;6.28;;;2.50;;
38725;SDS011;24474;48.906;8.808;2024-02-21T07:09:39;7.43;;;2.67;;
38725;SDS011;24474;48.906;8.808;2024-02-21T07:12:07;9.60;;;2.70;;
38725;SDS011;24474;48.906;8.808;2024-02-21T07:14:33;8.80;;;3.00;;
38725;SDS011;24474;48.906;8.808;2024-02-21T07:16:59;6.35;;;2.47;;
38725;SDS011;24474;48.906;8.808;2024-02-21T07:19:26;6.30;;;2.75;;
38725;SDS011;24474;48.906;8.808;2024-02-21T07:21:52;6.40;;;2.17;;
38725;SDS011;24474;48.906;8.808;2024-02-21T07:24:18;9.20;;;2.65;;
38725;SDS011;24474;48.906;8.808;2024-02-21T07:26:47;7.50;;;2.38;;
38725;SDS011;24474;48.906;8.808;2024-02-21T07:29:13;7.45;;;2.55;;
38725;SDS011;24474;48.906;8.808;2024-02-21T07:31:40;7.97;;;2.65;;
38725;SDS011;24474;48.906;8.808;2024-02-21T07:34:09;6.07;;;2.10;;
38725;SDS011;24474;48.906;8.808;2024-02-21T07:36:35;10.43;;;2.38;;
38725;SDS011;24474;48.906;8.808;2024-02-21T07:39:02;8.00;;;2.47;;
38725;SDS011;24474;48.906;8.808;2024-02-21T07:41:30;6.90;;;2.50;;
38725;SDS011;24474;48.906;8.808;2024-02-21T07:43:56;6.82;;;2.17;;
38725;SDS011;24474;48.906;8.808;2024-02-21T07:46:23;7.32;;;2.20;;
38725;SDS011;24474;48.906;8.808;2024-02-21T07:48:49;7.13;;;2.28;;
38725;SDS011;24474;48.906;8.808;2024-02-21T07:51:15;8.50;;;2.20;;
38725;SDS011;24474;48.906;8.808;2024-02-21T07:53:44;10.65;;;2.67;;
38725;SDS011;24474;48.906;8.808;2024-02-21T07:56:11;6.72;;;2.38;;
38725;SDS011;24474;48.906;8.808;2024-02-21T07:58:38;7.57;;;2.33;;
38725;SDS011;24474;48.906;8.808;2024-02-21T08:01:04;4.35;;;2.30;;
38725;SDS011;24474;48.906;8.808;2024-02-21T08:03:32;7.40;;;2.28;;
38725;SDS011;24474;48.906;8.808;2024-02-21T08:05:57;9.10;;;2.63;;
38725;SDS011;24474;48.906;8.808;2024-02-21T08:08:24;5.70;;;2.55;;
38725;SDS011;24474;48.906;8.808;2024-02-21T08:10:51;6.53;;;2.47;;
38725;SDS011;24474;48.906;8.808;2024-02-21T08:13:17;5.43;;;2.08;;
38725;SDS011;24474;48.906;8.808;2024-02-21T08:15:44;9.65;;;2.38;;
38725;SDS011;24474;48.906;8.808;2024-02-21T08:18:10;6.43;;;2.53;;
38725;SDS011;24474;48.906;8.808;2024-02-21T08:20:35;9.05;;;1.95;;
38725;SDS011;24474;48.906;8.808;2024-02-21T08:23:01;6.82;;;1.88;;
38725;SDS011;24474;48.906;8.808;2024-02-21T08:25:31;8.27;;;2.30;;
38725;SDS011;24474;48.906;8.808;2024-02-21T08:27:58;7.80;;;2.25;;
38725;SDS011;24474;48.906;8.808;2024-02-21T08:30:24;5.63;;;2.40;;
38725;SDS011;24474;48.906;8.808;2024-02-21T08:32:50;7.18;;;2.55;;
38725;SDS011;24474;48.906;8.808;2024-02-21T08:35:16;6.20;;;1.80;;
38725;SDS011;24474;48.906;8.808;2024-02-21T08:37:45;9.48;;;2.30;;
38725;SDS011;24474;48.906;8.808;2024-02-21T08:40:14;7.60;;;2.35;;
38725;SDS011;24474;48.906;8.808;2024-02-21T08:42:44;6.03;;;1.90;;
38725;SDS011;24474;48.906;8.808;2024-02-21T08:45:10;6.82;;;1.65;;
38725;SDS011;24474;48.906;8.808;2024-02-21T08:47:35;8.00;;;2.30;;
38725;SDS011;24474;48.906;8.808;2024-02-21T08:50:04;6.05;;;2.10;;
38725;SDS011;24474;48.906;8.808;2024-02-21T08:52:31;7.97;;;2.33;;
38725;SDS011;24474;48.906;8.808;2024-02-21T08:54:57;7.55;;;2.13;;
38725;SDS011;24474;48.906;8.808;2024-02-21T08:57:25;3.88;;;1.63;;
38725;SDS011;24474;48.906;8.808;2024-02-21T08:59:52;7.05;;;1.88;;
38725;SDS011;24474;48.906;8.808;2024-02-21T09:02:17;5.00;;;2.10;;
38725;SDS011;24474;48.906;8.808;2024-02-21T09:04:43;5.60;;;1.80;;
38725;SDS011;24474;48.906;8.808;2024-02-21T09:07:09;5.38;;;1.92;;
38725;SDS011;24474;48.906;8.808;2024-02-21T09:09:38;6.82;;;2.05;;
38725;SDS011;24474;48.906;8.808;2024-02-21T09:12:06;7.65;;;2.92;;
38725;SDS011;24474;48.906;8.808;2024-02-21T09:14:38;6.05;;;2.05;;
38725;SDS011;24474;48.906;8.808;2024-02-21T09:17:04;9.75;;;2.50;;
38725;SDS011;24474;48.906;8.808;2024-02-21T09:19:33;6.95;;;2.20;;
38725;SDS011;24474;48.906;8.808;2024-02-21T09:22:00;7.80;;;2.00;;
38725;SDS011;24474;48.906;8.808;2024-02-21T09:24:25;6.25;;;2.60;;
38725;SDS011;24474;48.906;8.808;2024-02-21T09:26:52;7.38;;;2.20;;
38725;SDS011;24474;48.906;8.808;2024-02-21T09:29:18;6.38;;;2.00;;
38725;SDS011;24474;48.906;8.808;2024-02-21T09:31:44;6.93;;;2.15;;
38725;SDS011;24474;48.906;8.808;2024-02-21T09:34:12;7.82;;;2.47;;
38725;SDS011;24474;48.906;8.808;2024-02-21T09:36:37;5.13;;;1.95;;
38725;SDS011;24474;48.906;8.808;2024-02-21T09:39:05;9.10;;;2.17;;
38725;SDS011;24474;48.906;8.808;2024-02-21T09:41:31;6.30;;;2.20;;
38725;SDS011;24474;48.906;8.808;2024-02-21T09:44:01;7.10;;;1.85;;
38725;SDS011;24474;48.906;8.808;2024-02-21T09:46:40;5.63;;;1.70;;
38725;SDS011;24474;48.906;8.808;2024-02-21T09:52:04;4.63;;;1.65;;
38725;SDS011;24474;48.906;8.808;2024-02-21T09:54:34;3.80;;;1.50;;
38725;SDS011;24474;48.906;8.808;2024-02-21T09:57:02;4.78;;;1.60;;
38725;SDS011;24474;48.906;8.808;2024-02-21T09:59:28;6.25;;;1.70;;
38725;SDS011;24474;48.906;8.808;2024-02-21T10:01:58;9.02;;;1.83;;
38725;SDS011;24474;48.906;8.808;2024-02-21T10:04:27;5.47;;;1.80;;
38725;SDS011;24474;48.906;8.808;2024-02-21T10:06:54;6.65;;;1.70;;
38725;SDS011;24474;48.906;8.808;2024-02-21T10:09:25;4.55;;;1.88;;
38725;SDS011;24474;48.906;8.808;2024-02-21T10:11:54;7.10;;;1.60;;
38725;SDS011;24474;48.906;8.808;2024-02-21T10:14:34;7.00;;;1.75;;
38725;SDS011;24474;48.906;8.808;2024-02-21T10:17:03;7.10;;;1.75;;
38725;SDS011;24474;48.906;8.808;2024-02-21T10:19:35;4.80;;;1.80;;
38725;SDS011;24474;48.906;8.808;2024-02-21T10:22:05;6.35;;;1.90;;
38725;SDS011;24474;48.906;8.808;2024-02-21T10:24:34;6.95;;;2.10;;
38725;SDS011;24474;48.906;8.808;2024-02-21T10:27:10;4.45;;;1.83;;
38725;SDS011;24474;48.906;8.808;2024-02-21T10:29:37;7.82;;;2.13;;
38725;SDS011;24474;48.906;8.808;2024-02-21T10:32:05;7.38;;;2.00;;
38725;SDS011;24474;48.906;8.808;2024-02-21T10:34:36;5.13;;;1.80;;
38725;SDS011;24474;48.906;8.808;2024-02-21T10:37:03;6.03;;;1.55;;
38725;SDS011;24474;48.906;8.808;2024-02-21T10:39:32;5.88;;;1.60;;
38725;SDS011;24474;48.906;8.808;2024-02-21T10:41:59;6.22;;;2.05;;
38725;SDS011;24474;48.906;8.808;2024-02-21T10:44:29;5.95;;;1.90;;
38725;SDS011;24474;48.906;8.808;2024-02-21T10:46:58;5.95;;;1.65;;
38725;SDS011;24474;48.906;8.808;2024-02-21T10:49:25;5.95;;;1.50;;
38725;SDS011;24474;48.906;8.808;2024-02-21T10:51:59;3.42;;;1.40;;
38725;SDS011;24474;48.906;8.808;2024-02-21T10:54:56;3.03;;;1.40;;
38725;SDS011;24474;48.906;8.808;2024-02-21T10:57:29;8.13;;;1.70;;
38725;SDS011;24474;48.906;8.808;2024-02-21T10:59:56;5.10;;;1.50;;
38725;SDS011;24474;48.906;8.808;2024-02-21T11:02:26;4.25;;;1.60;;
38725;SDS011;24474;48.906;8.808;2024-02-21T11:04:55;4.80;;;1.50;;
38725;SDS011;24474;48.906;8.808;2024-02-21T11:07:23;7.32;;;2.00;;
38725;SDS011;24474;48.906;8.808;2024-02-21T11:09:52;5.30;;;1.58;;
38725;SDS011;24474;48.906;8.808;2024-02-21T11:12:23;5.25;;;1.60;;
38725;SDS011;24474;48.906;8.808;2024-02-21T11:14:50;6.78;;;2.00;;
38725;SDS011;24474;48.906;8.808;2024-02-21T11:17:19;5.82;;;1.65;;
38725;SDS011;24474;48.906;8.808;2024-02-21T11:19:52;5.95;;;1.45;;
38725;SDS011;24474;48.906;8.808;2024-02-21T11:22:43;3.72;;;1.50;;
38725;SDS011;24474;48.906;8.808;2024-02-21T11:25:09;9.75;;;1.50;;
38725;SDS011;24474;48.906;8.808;2024-02-21T11:27:36;8.20;;;1.58;;
38725;SDS011;24474;48.906;8.808;2024-02-21T11:30:04;5.65;;;1.83;;
38725;SDS011;24474;48.906;8.808;2024-02-21T11:32:30;5.55;;;1.77;;
38725;SDS011;24474;48.906;8.808;2024-02-21T11:34:57;5.47;;;1.60;;
38725;SDS011;24474;48.906;8.808;2024-02-21T11:37:27;6.15;;;2.25;;
38725;SDS011;24474;48.906;8.808;2024-02-21T11:39:57;5.35;;;1.50;;
38725;SDS011;24474;48.906;8.808;2024-02-21T11:42:24;8.15;;;2.03;;
38725;SDS011;24474;48.906;8.808;2024-02-21T11:44:53;4.65;;;1.50;;
38725;SDS011;24474;48.906;8.808;2024-02-21T11:47:22;5.50;;;1.63;;
38725;SDS011;24474;48.906;8.808;2024-02-21T11:49:49;4.97;;;1.55;;
38725;SDS011;24474;48.906;8.808;2024-02-21T11:52:21;4.38;;;1.45;;
38725;SDS011;24474;48.906;8.808;2024-02-21T11:54:50;4.78;;;1.42;;
38725;SDS011;24474;48.906;8.808;2024-02-21T11:57:16;6.13;;;1.58;;
38725;SDS011;24474;48.906;8.808;2024-02-21T11:59:44;6.50;;;1.48;;
38725;SDS011;24474;48.906;8.808;2024-02-21T12:02:11;4.85;;;1.38;;
38725;SDS011;24474;48.906;8.808;2024-02-21T12:04:39;5.72;;;1.70;;
38725;SDS011;24474;48.906;8.808;2024-02-21T12:07:05;4.40;;;1.38;;
38725;SDS011;24474;48.906;8.808;2024-02-21T12:09:31;6.88;;;1.60;;
38725;SDS011;24474;48.906;8.808;2024-02-21T12:12:06;6.63;;;1.80;;
38725;SDS011;24474;48.906;8.808;2024-02-21T12:14:34;6.38;;;2.00;;
38725;SDS011;24474;48.906;8.808;2024-02-21T12:17:00;4.72;;;1.52;;
38725;SDS011;24474;48.906;8.808;2024-02-21T12:19:32;4.55;;;1.58;;
38725;SDS011;24474;48.906;8.808;2024-02-21T12:22:01;4.47;;;1.70;;
38725;SDS011;24474;48.906;8.808;2024-02-21T12:24:32;7.35;;;1.75;;
38725;SDS011;24474;48.906;8.808;2024-02-21T12:26:58;3.95;;;1.65;;
38725;SDS011;24474;48.906;8.808;2024-02-21T12:29:23;5.72;;;1.60;;
38725;SDS011;24474;48.906;8.808;2024-02-21T12:31:50;7.10;;;1.70;;
38725;SDS011;24474;48.906;8.808;2024-02-21T12:34:16;5.35;;;1.75;;
38725;SDS011;24474;48.906;8.808;2024-02-21T12:36:43;5.93;;;1.67;;
38725;SDS011;24474;48.906;8.808;2024-02-21T12:39:09;4.55;;;1.38;;
38725;SDS011;24474;48.906;8.808;2024-02-21T12:41:36;3.85;;;1.33;;
38725;SDS011;24474;48.906;8.808;2024-02-21T12:44:06;5.43;;;1.60;;
38725;SDS011;24474;48.906;8.808;2024-02-21T12:46:35;5.70;;;1.63;;
38725;SDS011;24474;48.906;8.808;2024-02-21T12:49:01;7.65;;;1.70;;
38725;SDS011;24474;48.906;8.808;2024-02-21T12:51:28;5.05;;;1.70;;
38725;SDS011;24474;48.906;8.808;2024-02-21T12:53:54;3.90;;;1.15;;
38725;SDS011;24474;48.906;8.808;2024-02-21T12:56:20;5.70;;;1.73;;
38725;SDS011;24474;48.906;8.808;2024-02-21T12:58:46;2.92;;;1.38;;
38725;SDS011;24474;48.906;8.808;2024-02-21T13:01:12;5.85;;;1.85;;
38725;SDS011;24474;48.906;8.808;2024-02-21T13:03:38;4.15;;;1.40;;
38725;SDS011;24474;48.906;8.808;2024-02-21T13:06:04;5.30;;;1.77;;
38725;SDS011;24474;48.906;8.808;2024-02-21T13:08:30;5.40;;;1.45;;
38725;SDS011;24474;48.906;8.808;2024-02-21T13:10:56;6.57;;;1.83;;
38725;SDS011;24474;48.906;8.808;2024-02-21T13:13:22;5.90;;;1.52;;
38725;SDS011;24474;48.906;8.808;2024-02-21T13:15:48;5.00;;;1.50;;
38725;SDS011;24474;48.906;8.808;2024-02-21T13:18:13;4.35;;;1.70;;
38725;SDS011;24474;48.906;8.808;2024-02-21T13:20:39;6.72;;;1.90;;
38725;SDS011;24474;48.906;8.808;2024-02-21T13:23:04;4.35;;;1.40;;
38725;SDS011;24474;48.906;8.808;2024-02-21T13:25:30;5.85;;;1.48;;
38725;SDS011;24474;48.906;8.808;2024-02-21T13:27:56;10.30;;;1.80;;
38725;SDS011;24474;48.906;8.808;2024-02-21T13:30:22;6.25;;;1.75;;
38725;SDS011;24474;48.906;8.808;2024-02-21T13:32:48;6.63;;;1.58;;
38725;SDS011;24474;48.906;8.808;2024-02-21T13:35:13;3.78;;;1.50;;
38725;SDS011;24474;48.906;8.808;2024-02-21T13:37:40;7.07;;;2.30;;
38725;SDS011;24474;48.906;8.808;2024-02-21T13:40:07;9.32;;;2.42;;
38725;SDS011;24474;48.906;8.808;2024-02-21T13:42:36;6.15;;;1.52;;
38725;SDS011;24474;48.906;8.808;2024-02-21T13:45:03;4.38;;;1.60;;
38725;SDS011;24474;48.906;8.808;2024-02-21T13:47:30;6.85;;;1.90;;
38725;SDS011;24474;48.906;8.808;2024-02-21T13:49:58;5.57;;;2.70;;
38725;SDS011;24474;48.906;8.808;2024-02-21T13:52:24;7.03;;;3.20;;
38725;SDS011;24474;48.906;8.808;2024-02-21T13:54:57;6.53;;;1.98;;
38725;SDS011;24474;48.906;8.808;2024-02-21T13:57:28;3.20;;;1.80;;
38725;SDS011;24474;48.906;8.808;2024-02-21T13:59:54;6.93;;;1.83;;
38725;SDS011;24474;48.906;8.808;2024-02-21T14:02:20;15.00;;;3.28;;
38725;SDS011;24474;48.906;8.808;2024-02-21T14:04:46;6.95;;;1.90;;
38725;SDS011;24474;48.906;8.808;2024-02-21T14:07:12;5.55;;;1.75;;
38725;SDS011;24474;48.906;8.808;2024-02-21T14:09:37;6.70;;;1.73;;
38725;SDS011;24474;48.906;8.808;2024-02-21T14:12:03;4.10;;;1.63;;
38725;SDS011;24474;48.906;8.808;2024-02-21T14:14:32;6.97;;;1.88;;
38725;SDS011;24474;48.906;8.808;2024-02-21T14:17:04;7.35;;;2.40;;
38725;SDS011;24474;48.906;8.808;2024-02-21T14:19:31;6.82;;;2.63;;
38725;SDS011;24474;48.906;8.808;2024-02-21T14:21:57;8.95;;;2.83;;
38725;SDS011;24474;48.906;8.808;2024-02-21T14:24:23;10.23;;;2.75;;
38725;SDS011;24474;48.906;8.808;2024-02-21T14:26:50;5.50;;;1.88;;
38725;SDS011;24474;48.906;8.808;2024-02-21T14:29:15;6.18;;;2.10;;
38725;SDS011;24474;48.906;8.808;2024-02-21T14:31:41;8.65;;;2.13;;
38725;SDS011;24474;48.906;8.808;2024-02-21T14:34:07;6.70;;;1.88;;
38725;SDS011;24474;48.906;8.808;2024-02-21T14:36:34;6.97;;;2.17;;
38725;SDS011;24474;48.906;8.808;2024-02-21T14:39:15;9.13;;;2.25;;
38725;SDS011;24474;48.906;8.808;2024-02-21T14:41:41;7.15;;;2.22;;
38725;SDS011;24474;48.906;8.808;2024-02-21T14:44:12;11.75;;;3.10;;
38725;SDS011;24474;48.906;8.808;2024-02-21T14:46:41;7.50;;;2.70;;